»·PEaware :: N8872B L52-L52

N8872B :: L52-L52

FLIGHT INFORMATION

Flight Status: Arrived
Operator: Privately registered:
United States
More flights under this callsign
Pilot: Albert N. (26209)
Aircraft: CIRRUS SR-22 TURBO
(S22T)
More flights by this aircraft type
Origin: L52 Oceano Co
United States
Destination: L52 Oceano Co
United States
More flights between these airports :: More routes between these airports
Route:
File this flight plan on PilotEdge
Remarks: CIRCLE TO LAND
Altitude:
(Current/Filed)
1,500ft
Speed:
(Current/Filed)
150kts
Departed: 13-Sep-19 07:25 PM
Arrived: 13-Sep-19 07:34 PM
Distance/Time
Traveled:
0nm/0:09
Distance/Time
To Go:
Arrived

Flight Plot

Page will automatically refresh every two minutes.


Map Options




Map Legend


Flown Route
Filed Route
Departure Airport
Arrival Airport
Navaid (VOR, NDB)
Fix

Horizontal Profiles

Position Reports

Time Latitude Longitude Heading Altitude Ground
Speed
13-Sep-19 18:32 35.103500 -120.624068 35 18ft 0kts
13-Sep-19 18:33 35.103500 -120.624068 35 18ft 0kts
13-Sep-19 18:34 35.103500 -120.624068 35 18ft 0kts
13-Sep-19 18:35 35.103500 -120.624068 35 18ft 0kts
13-Sep-19 18:36 35.103500 -120.624068 35 18ft 0kts
13-Sep-19 18:37 35.103500 -120.624068 35 18ft 0kts
13-Sep-19 18:38 35.103500 -120.624068 35 18ft 0kts
13-Sep-19 18:39 35.103500 -120.624068 35 18ft 0kts
13-Sep-19 18:40 35.103500 -120.624068 35 18ft 0kts
13-Sep-19 18:41 35.103500 -120.624068 35 18ft 0kts
13-Sep-19 18:42 35.103500 -120.624068 35 18ft 0kts
13-Sep-19 18:43 35.103500 -120.624068 35 18ft 0kts
13-Sep-19 18:44 35.103500 -120.624068 35 18ft 0kts
13-Sep-19 18:45 35.103500 -120.624068 35 18ft 0kts
13-Sep-19 18:46 35.103500 -120.624068 35 18ft 0kts
13-Sep-19 18:47 35.103500 -120.624068 35 18ft 0kts
13-Sep-19 18:48 35.103500 -120.624068 35 18ft 0kts
13-Sep-19 18:49 35.103500 -120.624068 35 18ft 0kts
13-Sep-19 18:50 35.103500 -120.624068 35 18ft 0kts
13-Sep-19 18:51 35.103500 -120.624068 35 18ft 0kts
13-Sep-19 18:52 35.103500 -120.624068 35 18ft 0kts
13-Sep-19 18:53 35.103500 -120.624068 35 18ft 0kts
13-Sep-19 18:54 35.103500 -120.624068 35 18ft 0kts
13-Sep-19 18:55 35.103500 -120.624068 35 18ft 0kts
13-Sep-19 18:56 35.103500 -120.624067 35 18ft 0kts
13-Sep-19 18:57 35.103500 -120.624067 35 18ft 0kts
13-Sep-19 18:58 35.103500 -120.624067 35 18ft 0kts
13-Sep-19 18:59 35.103500 -120.624067 35 18ft 0kts
13-Sep-19 19:00 35.103500 -120.624067 35 18ft 0kts
13-Sep-19 19:01 35.103500 -120.624067 35 18ft 0kts
13-Sep-19 19:02 35.103500 -120.624067 35 18ft 0kts
13-Sep-19 19:03 35.103500 -120.624067 35 18ft 0kts
13-Sep-19 19:04 35.103500 -120.624067 35 18ft 0kts
13-Sep-19 19:05 35.103500 -120.624067 35 18ft 0kts
13-Sep-19 19:06 35.103500 -120.624067 35 18ft 0kts
13-Sep-19 19:07 35.103500 -120.624067 35 18ft 0kts
13-Sep-19 19:08 35.103500 -120.624067 35 18ft 0kts
13-Sep-19 19:09 35.103500 -120.624067 35 18ft 0kts
13-Sep-19 19:10 35.103500 -120.624067 35 18ft 0kts
13-Sep-19 19:11 35.103599 -120.622703 129 25ft 15kts
13-Sep-19 19:12 35.102046 -120.622289 231 18ft 1kts
13-Sep-19 19:13 35.101195 -120.622691 130 18ft 10kts
13-Sep-19 19:14 35.100360 -120.621235 125 18ft 4kts
13-Sep-19 19:15 35.099298 -120.619300 89 18ft 0kts
13-Sep-19 19:24 35.047796 -120.653117 328 511ft 103kts
13-Sep-19 19:25 35.073171 -120.665867 341 571ft 97kts
13-Sep-19 19:26 35.096516 -120.679716 16 1193ft 104kts
13-Sep-19 19:27 35.096283 -120.662949 155 1488ft 118kts
13-Sep-19 19:28 35.080227 -120.658714 144 1412ft 117kts
13-Sep-19 19:29 35.079447 -120.629221 95 695ft 108kts
13-Sep-19 19:30 35.082919 -120.604634 47 401ft 85kts
13-Sep-19 19:31 35.087472 -120.600384 33 352ft 83kts
13-Sep-19 19:32 35.095449 -120.610954 294 257ft 77kts
13-Sep-19 19:33 35.102282 -120.623783 306 18ft 0kts
13-Sep-19 19:34 35.102230 -120.624124 247 18ft 0kts
13-Sep-19 19:35 35.101349 -120.622988 124 18ft 20kts
13-Sep-19 19:36 35.099099 -120.619555 167 18ft 5kts
13-Sep-19 19:37 35.099065 -120.619434 38 18ft 0kts
13-Sep-19 19:38 35.099065 -120.619434 38 18ft 0kts
13-Sep-19 19:39 35.099065 -120.619434 38 18ft 0kts
13-Sep-19 19:40 35.099065 -120.619434 38 18ft 0kts
13-Sep-19 19:41 35.099065 -120.619434 38 18ft 0kts
13-Sep-19 19:42 35.099065 -120.619434 38 18ft 0kts
13-Sep-19 19:43 35.099065 -120.619434 38 18ft 0kts
13-Sep-19 19:44 35.099065 -120.619434 38 18ft 0kts
13-Sep-19 19:45 35.099065 -120.619434 38 18ft 0kts
13-Sep-19 19:46 35.099065 -120.619434 38 18ft 0kts
13-Sep-19 19:47 35.099065 -120.619434 38 18ft 0kts

Navigation Log

Ident Type
Flight plan parsing failed, navigation log unavailable